Aeroporto :
LOGIN :

Iscrizione | Disclaimer

   EN    FR    IT 

 










Sommario :    VFR   VFR Marginale   IFR   IFR Intensivo   IFR Molto Intensivo
Visibilità : 
Base nubi : 
>= 8 km
>= 3000ft
5 / 8 km
1000 / 3000 ft
1500m / 5 km
500 / 1000 ft
800 / 1500m
200 / 500 ft
< 800m
< 200 ft
Simboli :   Temporali  Nebbia  Neve Forte  Precipitazioni Forti  Vento > 20 kt
SIGMETs :   Varie  Temporali  Ghiacco  Turbolenza  Onda orograficha  Ceneri Vulcaniche






- Altitudine del aeroporto : 306 ft
- Codice IATA : EMA


EGNX - Nottingham East Midlands

ULTIMO METAR :
  • 140620Z 12004KT 100V190 CAVOK 08/08 Q1009

METARs OBSOLETI :
  • 140550Z 13005KT 060V150 CAVOK 08/08 Q1009
  • 140520Z 13004KT CAVOK 08/08 Q1009
  • 140450Z 13002KT CAVOK 08/08 Q1009
  • 140420Z 13004KT 110V180 CAVOK 08/08 Q1009
  • 140350Z 16003KT 9999 FEW046 08/08 Q1010

TAF TAF EGNX
Valido dal 14 a 06 ore il 15 a 06 ore UTC


140455Z 1406/1506 VRB04KT 9999 FEW020
PROB30 1406/1409 3000 BR
TEMPO 1409/1412 BKN012
BECMG 1411/1414 06010KT
TEMPO 1411/1419 8000 -RA BKN010
PROB30
TEMPO 1412/1418 4000 RA BKN008
BECMG 1420/1423 36007KT BKN010
PROB40 1422/1506 4000 RADZ BR BKN005
ATIS : +44 1332 852 852 (ext 3201)



MetMap, La meteo Aeronautica in un colpo d'occhio ! - Copyright ORBIFLY Dicembre 2007 - Disclaimer

ORBIFLY MET'MAP TEAM :

Programmazione e sviluppo : Alexandra Zaïnal
Concezione e sviluppo : Baudouin d'Aumeries
Co-Programmazione e sviluppo : Marc-Olivier Méhu
Supporto tecnico e logistico : Manuel Goepfert
Aiuto per la traduzione : Arnaldo La Scala

Contatto : metmap@orbifly.com




FONTI E CREDITI :

   NOAA